createdAt,value
2018-08-30T00:04:47.645Z,0.00
2018-08-30T00:05:43.097Z,0.00
2018-08-30T00:09:22.162Z,0.00
2018-08-30T00:10:21.783Z,0.00
2018-08-30T00:15:31.489Z,0.00
2018-08-30T00:16:18.846Z,0.00
2018-08-30T00:20:07.135Z,0.00
2018-08-30T00:23:54.363Z,0.00
2018-08-30T00:32:02.671Z,0.00
2018-08-30T00:34:36.573Z,0.00
2018-08-30T00:36:31.120Z,0.00
2018-08-30T00:39:42.742Z,0.00
2018-08-30T00:40:45.206Z,0.00
2018-08-30T00:59:21.216Z,0.00
2018-08-30T01:00:21.512Z,0.00
2018-08-30T01:04:39.739Z,0.00
2018-08-30T01:05:39.586Z,0.00
2018-08-30T01:07:43.812Z,0.00
2018-08-30T01:08:51.983Z,0.00
2018-08-30T01:11:50.739Z,0.00
2018-08-30T01:17:33.093Z,0.00
2018-08-30T01:32:51.474Z,0.00
2018-08-30T01:37:04.446Z,0.00
2018-08-30T01:41:22.896Z,0.00
2018-08-30T01:42:24.658Z,0.00
2018-08-30T01:47:53.608Z,0.00
2018-08-30T01:58:51.711Z,0.00
2018-08-30T02:03:13.324Z,0.00
2018-08-30T02:08:56.029Z,0.00
2018-08-30T02:20:35.504Z,0.00
2018-08-30T02:32:21.686Z,0.00
2018-08-30T02:59:36.578Z,0.00
2018-08-30T03:00:37.386Z,0.00
2018-08-30T03:01:36.501Z,0.00
2018-08-30T03:15:21.125Z,0.00
2018-08-30T03:16:20.148Z,0.00
2018-08-30T03:17:20.039Z,0.00
2018-08-30T03:18:20.139Z,0.00
2018-08-30T03:20:30.335Z,0.00
2018-08-30T03:21:29.982Z,0.00
2018-08-30T03:22:29.960Z,0.00
2018-08-30T03:23:29.847Z,0.00
2018-08-30T03:24:29.840Z,0.00
2018-08-30T03:25:29.963Z,0.00
2018-08-30T03:26:30.541Z,0.00
2018-08-30T03:27:29.792Z,0.00
2018-08-30T03:29:48.739Z,0.00
2018-08-30T03:30:48.358Z,0.00
2018-08-30T03:31:48.269Z,0.00
2018-08-30T03:32:48.324Z,0.00
2018-08-30T03:33:48.188Z,0.00
2018-08-30T03:34:49.153Z,0.00
2018-08-30T03:35:48.210Z,0.00
2018-08-30T03:36:48.158Z,0.00
2018-08-30T03:37:48.360Z,0.00
2018-08-30T03:43:12.034Z,0.00
2018-08-30T03:44:11.045Z,0.00
2018-08-30T03:45:20.585Z,0.00
2018-08-30T03:49:58.948Z,0.00
2018-08-30T03:52:24.034Z,0.00
2018-08-30T03:53:24.639Z,0.00
2018-08-30T03:54:23.986Z,0.00
2018-08-30T03:56:52.707Z,0.00
2018-08-30T03:57:52.359Z,0.00
2018-08-30T03:58:53.088Z,0.00
2018-08-30T04:01:04.854Z,0.00
2018-08-30T04:02:04.449Z,0.00
2018-08-30T04:04:26.778Z,0.00
2018-08-30T04:05:26.289Z,0.00
2018-08-30T04:06:26.195Z,0.00
2018-08-30T04:07:26.177Z,4.00
2018-08-30T04:08:26.152Z,4.00
2018-08-30T04:09:26.175Z,4.00
2018-08-30T04:10:26.149Z,4.00
2018-08-30T04:11:26.126Z,8.00
2018-08-30T04:12:26.109Z,8.00
2018-08-30T04:13:26.131Z,4.00
2018-08-30T04:14:26.123Z,8.00
2018-08-30T04:15:26.088Z,8.00
2018-08-30T04:16:26.059Z,12.00
2018-08-30T04:17:26.049Z,12.00
2018-08-30T04:18:26.120Z,16.00
2018-08-30T04:19:26.068Z,24.00
2018-08-30T04:20:26.135Z,28.00
2018-08-30T04:21:26.004Z,36.00
2018-08-30T04:22:26.038Z,40.00
2018-08-30T04:23:26.014Z,44.00
2018-08-30T04:24:26.088Z,56.00
2018-08-30T04:25:25.958Z,64.00
2018-08-30T04:26:25.957Z,68.00
2018-08-30T04:27:26.176Z,80.00
2018-08-30T04:30:12.556Z,72.00
2018-08-30T04:31:12.149Z,68.00
2018-08-30T04:32:12.550Z,60.00
2018-08-30T04:33:12.061Z,68.00
2018-08-30T04:34:11.976Z,76.00
2018-08-30T04:35:11.943Z,84.00
2018-08-30T04:36:12.578Z,88.00
2018-08-30T04:37:12.005Z,88.00
2018-08-30T04:38:11.903Z,84.00
2018-08-30T04:39:12.521Z,88.00
2018-08-30T04:47:35.845Z,336.00
2018-08-30T04:51:38.035Z,320.00
2018-08-30T04:52:38.019Z,340.00
2018-08-30T04:58:35.676Z,664.00
2018-08-30T04:59:35.421Z,704.00
2018-08-30T05:00:35.372Z,804.00
2018-08-30T05:01:35.348Z,876.00
2018-08-30T05:02:35.707Z,848.00
2018-08-30T05:03:35.272Z,860.00
2018-08-30T05:04:35.254Z,792.00
2018-08-30T05:05:35.227Z,776.00
2018-08-30T05:06:35.277Z,968.00
2018-08-30T05:07:35.523Z,1036.00
2018-08-30T05:08:35.196Z,1052.00
2018-08-30T05:09:35.196Z,1048.00
2018-08-30T05:10:35.175Z,1024.00
2018-08-30T05:11:35.187Z,1032.00
2018-08-30T05:12:35.187Z,1064.00
2018-08-30T05:17:26.935Z,1000.00
2018-08-30T05:19:34.990Z,896.00
2018-08-30T05:20:34.580Z,1056.00
2018-08-30T05:21:34.630Z,1188.00
2018-08-30T05:22:35.313Z,1184.00
2018-08-30T05:25:23.611Z,1676.00
2018-08-30T05:27:41.350Z,2268.00
2018-08-30T05:28:41.192Z,2136.00
2018-08-30T05:29:41.236Z,2368.00
2018-08-30T05:30:41.133Z,2912.00
2018-08-30T05:35:33.399Z,2260.00
2018-08-30T05:36:33.251Z,2252.00
2018-08-30T05:37:46.981Z,1812.00
2018-08-30T05:38:33.168Z,1336.00
2018-08-30T05:39:38.075Z,1308.00
2018-08-30T05:40:33.258Z,1524.00
2018-08-30T05:55:28.755Z,1748.00
2018-08-30T05:56:24.951Z,2020.00
2018-08-30T05:57:25.037Z,2412.00
2018-08-30T05:59:43.178Z,2076.00
2018-08-30T06:00:42.569Z,1944.00
2018-08-30T06:01:50.893Z,1976.00
2018-08-30T06:02:42.610Z,1844.00
2018-08-30T06:32:39.159Z,4496.00
2018-08-30T06:33:38.654Z,4860.00
2018-08-30T06:34:38.783Z,5228.00
2018-08-30T06:35:41.302Z,5980.00
2018-08-30T06:36:38.555Z,6384.00
2018-08-30T06:37:38.537Z,6520.00
2018-08-30T06:38:38.520Z,6188.00
2018-08-30T06:39:38.489Z,5896.00
2018-08-30T06:40:55.939Z,5252.00
2018-08-30T06:41:38.501Z,5996.00
2018-08-30T06:42:38.717Z,7016.00
2018-08-30T06:43:38.727Z,7668.00
2018-08-30T06:44:38.461Z,7660.00
2018-08-30T06:45:38.416Z,7840.00
2018-08-30T06:46:38.460Z,6932.00
2018-08-30T06:47:38.504Z,5872.00
2018-08-30T06:48:38.472Z,6172.00
2018-08-30T06:51:03.714Z,6844.00
2018-08-30T06:52:02.448Z,6988.00
2018-08-30T06:53:02.392Z,6612.00
2018-08-30T06:54:02.428Z,6960.00
2018-08-30T06:55:02.317Z,7336.00
2018-08-30T06:56:02.264Z,7360.00
2018-08-30T06:57:02.479Z,7220.00
2018-08-30T06:58:02.218Z,8060.00
2018-08-30T06:59:02.318Z,8044.00
2018-08-30T07:00:02.200Z,8360.00
2018-08-30T07:01:02.917Z,9032.00
2018-08-30T07:02:02.198Z,9240.00
2018-08-30T07:03:02.191Z,10844.00
2018-08-30T07:04:02.169Z,11404.00
2018-08-30T07:12:03.427Z,11816.00
2018-08-30T07:13:02.925Z,11308.00
2018-08-30T07:14:02.865Z,11112.00
2018-08-30T07:15:02.984Z,10788.00
2018-08-30T07:16:02.770Z,9900.00
2018-08-30T07:18:41.829Z,10768.00
2018-08-30T07:19:41.534Z,10020.00
2018-08-30T07:20:41.514Z,9104.00
2018-08-30T07:21:41.682Z,8500.00
2018-08-30T07:22:41.428Z,8376.00
2018-08-30T07:23:41.407Z,8136.00
2018-08-30T07:24:41.406Z,8468.00
2018-08-30T07:28:30.705Z,13016.00
2018-08-30T07:29:30.106Z,12344.00
2018-08-30T07:30:30.096Z,11872.00
2018-08-30T07:31:30.012Z,14924.00
2018-08-30T07:32:29.924Z,14836.00
2018-08-30T07:33:30.061Z,13816.00
2018-08-30T07:36:08.912Z,18624.00
2018-08-30T07:37:08.727Z,19008.00
2018-08-30T07:38:08.553Z,19328.00
2018-08-30T07:39:08.371Z,18656.00
2018-08-30T07:40:08.341Z,18208.00
2018-08-30T07:41:08.449Z,16376.00
2018-08-30T07:42:08.331Z,14996.00
2018-08-30T07:43:08.320Z,14544.00
2018-08-30T07:44:08.390Z,14072.00
2018-08-30T07:45:08.310Z,13868.00
2018-08-30T07:51:42.243Z,25376.00
2018-08-30T08:18:06.769Z,20672.00
2018-08-30T08:19:06.310Z,21792.00
2018-08-30T08:20:06.165Z,18944.00
2018-08-30T08:21:06.098Z,17440.00
2018-08-30T08:22:07.059Z,21664.00
2018-08-30T08:28:23.684Z,34144.00
2018-08-30T08:29:23.540Z,27200.00
2018-08-30T08:30:23.623Z,27584.00
2018-08-30T08:31:23.836Z,51104.00
2018-08-30T08:32:23.466Z,27680.00
2018-08-30T08:33:23.408Z,24256.00
2018-08-30T08:34:23.372Z,26336.00
2018-08-30T08:35:23.359Z,24800.00
2018-08-30T08:36:23.354Z,27648.00
2018-08-30T08:37:23.338Z,26400.00
2018-08-30T08:38:23.314Z,21216.00
2018-08-30T08:39:23.304Z,19872.00
2018-08-30T08:40:23.301Z,25152.00
2018-08-30T08:41:23.298Z,24736.00
2018-08-30T08:42:23.266Z,21664.00
2018-08-30T08:43:23.256Z,23360.00
2018-08-30T08:44:23.308Z,24800.00
2018-08-30T08:45:23.271Z,25248.00
2018-08-30T08:46:23.228Z,23808.00
2018-08-30T08:47:23.237Z,26208.00
2018-08-30T08:48:23.212Z,28352.00
2018-08-30T08:49:23.307Z,27680.00
2018-08-30T08:50:23.208Z,22496.00
2018-08-30T08:51:23.167Z,27200.00
2018-08-30T08:52:23.248Z,31104.00
2018-08-30T08:53:23.195Z,29664.00
2018-08-30T08:54:23.135Z,32320.00
2018-08-30T08:55:23.162Z,28224.00
2018-08-30T08:56:23.131Z,20224.00
2018-08-30T08:57:23.238Z,19072.00
2018-08-30T08:58:23.101Z,26400.00
2018-08-30T08:59:23.123Z,49504.00
2018-08-30T09:00:23.108Z,35808.00
2018-08-30T09:01:23.209Z,38688.00
2018-08-30T09:02:23.146Z,32096.00
2018-08-30T09:03:23.050Z,29184.00
2018-08-30T09:04:23.097Z,27648.00
2018-08-30T09:05:23.018Z,28352.00
2018-08-30T09:06:23.058Z,31936.00
2018-08-30T09:07:23.080Z,48224.00
2018-08-30T09:08:23.192Z,30016.00
2018-08-30T09:09:22.978Z,29504.00
2018-08-30T09:10:22.963Z,21984.00
2018-08-30T09:11:23.944Z,22944.00
2018-08-30T09:12:23.039Z,28000.00
2018-08-30T09:13:22.956Z,88256.00
2018-08-30T09:14:22.956Z,88672.00
2018-08-30T09:15:22.909Z,79776.00
2018-08-30T09:18:46.608Z,87136.00
2018-08-30T09:19:47.155Z,57472.00
2018-08-30T09:24:20.318Z,31552.00
2018-08-30T09:26:53.103Z,45280.00
2018-08-30T09:27:52.627Z,29472.00
2018-08-30T09:28:52.522Z,32480.00
2018-08-30T09:29:52.635Z,82848.00
2018-08-30T09:31:04.197Z,36544.00
2018-08-30T09:31:52.554Z,63040.00
2018-08-30T09:32:52.968Z,93952.00
2018-08-30T09:33:52.764Z,90944.00
2018-08-30T09:34:57.165Z,28800.00
2018-08-30T09:35:52.403Z,34208.00
2018-08-30T09:36:52.388Z,52896.00
2018-08-30T09:37:53.267Z,78080.00
2018-08-30T09:38:52.328Z,20448.00
2018-08-30T09:40:07.420Z,18080.00
2018-08-30T09:40:57.914Z,20064.00
2018-08-30T09:41:52.289Z,24224.00
2018-08-30T09:46:19.928Z,89664.00
2018-08-30T09:49:38.412Z,30912.00
2018-08-30T09:50:37.605Z,23136.00
2018-08-30T09:51:37.645Z,23712.00
2018-08-30T09:52:38.146Z,26784.00
2018-08-30T09:53:37.678Z,26208.00
2018-08-30T09:54:37.443Z,23456.00
2018-08-30T09:55:37.460Z,24064.00
2018-08-30T09:56:37.511Z,33760.00
2018-08-30T09:59:19.400Z,101344.00
2018-08-30T10:04:01.218Z,43936.00
2018-08-30T10:05:01.179Z,66816.00
2018-08-30T10:06:01.321Z,87104.00
2018-08-30T10:07:01.139Z,42432.00
2018-08-30T10:08:01.094Z,77824.00
2018-08-30T10:09:01.049Z,90848.00
2018-08-30T10:10:01.128Z,92352.00
2018-08-30T10:15:21.188Z,28704.00
2018-08-30T10:16:29.000Z,31488.00
2018-08-30T10:17:19.626Z,102400.00
2018-08-30T10:21:54.198Z,24224.00
2018-08-30T10:22:54.101Z,37888.00
2018-08-30T10:23:53.978Z,103584.00
2018-08-30T10:24:53.932Z,101504.00
2018-08-30T10:25:54.043Z,97952.00
2018-08-30T10:26:54.025Z,95040.00
2018-08-30T10:27:53.898Z,96896.00
2018-08-30T10:28:53.920Z,94080.00
2018-08-30T10:29:53.928Z,44768.00
2018-08-30T10:30:53.869Z,96800.00
2018-08-30T10:31:53.853Z,67840.00
2018-08-30T10:32:53.842Z,52128.00
2018-08-30T10:33:53.878Z,34816.00
2018-08-30T10:34:53.841Z,98016.00
2018-08-30T10:35:53.866Z,33696.00
2018-08-30T10:36:53.829Z,32416.00
2018-08-30T10:37:53.823Z,28320.00
2018-08-30T10:38:54.750Z,18720.00
2018-08-30T10:39:56.528Z,16388.00
2018-08-30T10:40:53.963Z,18464.00
2018-08-30T10:52:10.886Z,48768.00
2018-08-30T10:53:10.593Z,99744.00
2018-08-30T10:54:10.460Z,101920.00
2018-08-30T10:55:10.391Z,97440.00
2018-08-30T10:56:10.333Z,35200.00
2018-08-30T10:57:10.398Z,30752.00
2018-08-30T10:58:10.324Z,92864.00
2018-08-30T10:59:10.300Z,71584.00
2018-08-30T11:00:11.192Z,59392.00
2018-08-30T11:01:10.452Z,32352.00
2018-08-30T11:02:10.325Z,29312.00
2018-08-30T11:03:10.290Z,30880.00
2018-08-30T11:04:10.303Z,38112.00
2018-08-30T11:05:10.262Z,108416.00
2018-08-30T11:06:10.304Z,111584.00
2018-08-30T11:07:10.253Z,108320.00
2018-08-30T11:08:10.328Z,95872.00
2018-08-30T11:09:10.221Z,60576.00
2018-08-30T11:10:12.135Z,19776.00
2018-08-30T11:11:10.927Z,18080.00
2018-08-30T11:12:10.233Z,19680.00
2018-08-30T11:13:10.469Z,25472.00
2018-08-30T11:14:10.221Z,26144.00
2018-08-30T11:15:12.214Z,37824.00
2018-08-30T11:16:22.918Z,26720.00
2018-08-30T11:19:51.223Z,30336.00
2018-08-30T11:24:16.187Z,13220.00
2018-08-30T11:25:15.595Z,14128.00
2018-08-30T11:26:15.483Z,16808.00
2018-08-30T11:27:15.648Z,22720.00
2018-08-30T11:28:15.430Z,30368.00
2018-08-30T11:29:15.361Z,87008.00
2018-08-30T11:30:15.591Z,22464.00
2018-08-30T11:31:15.341Z,18208.00
2018-08-30T11:32:15.315Z,15796.00
2018-08-30T11:33:15.752Z,15680.00
2018-08-30T11:34:16.388Z,16264.00
2018-08-30T11:35:15.282Z,17344.00
2018-08-30T11:36:15.292Z,18944.00
2018-08-30T11:37:15.263Z,21088.00
2018-08-30T11:38:15.253Z,21920.00
2018-08-30T11:39:15.244Z,23616.00
2018-08-30T11:40:15.242Z,25408.00
2018-08-30T11:41:15.273Z,27072.00
2018-08-30T11:42:15.226Z,46592.00
2018-08-30T11:43:15.337Z,31360.00
2018-08-30T11:44:15.307Z,28128.00
2018-08-30T11:45:15.173Z,25920.00
2018-08-30T11:46:15.170Z,25856.00
2018-08-30T11:47:15.156Z,26976.00
2018-08-30T11:48:15.232Z,28640.00
2018-08-30T11:49:15.136Z,31552.00
2018-08-30T11:50:15.130Z,86784.00
2018-08-30T11:51:15.107Z,39232.00
2018-08-30T11:52:15.324Z,89248.00
2018-08-30T11:53:15.081Z,90720.00
2018-08-30T11:54:15.173Z,85504.00
2018-08-30T11:55:15.053Z,83232.00
2018-08-30T11:56:15.183Z,85600.00
2018-08-30T11:57:15.159Z,84704.00
2018-08-30T11:59:34.144Z,67584.00
2018-08-30T12:00:33.659Z,83744.00
2018-08-30T12:01:33.639Z,44864.00
2018-08-30T12:02:33.730Z,50720.00
2018-08-30T12:03:33.698Z,34656.00
2018-08-30T12:04:33.700Z,48960.00
2018-08-30T12:05:33.696Z,61568.00
2018-08-30T12:06:33.623Z,45920.00
2018-08-30T12:07:33.638Z,55008.00
2018-08-30T12:08:33.570Z,70592.00
2018-08-30T12:09:33.557Z,77184.00
2018-08-30T12:10:34.531Z,68704.00
2018-08-30T12:11:33.646Z,60480.00
2018-08-30T12:12:33.529Z,47200.00
2018-08-30T12:13:33.559Z,51328.00
2018-08-30T12:14:33.516Z,44960.00
2018-08-30T12:15:33.500Z,43936.00
2018-08-30T12:16:33.489Z,42176.00
2018-08-30T12:17:33.480Z,41856.00
2018-08-30T12:18:33.524Z,34784.00
2018-08-30T12:19:33.457Z,35744.00
2018-08-30T12:20:33.503Z,34592.00
2018-08-30T12:21:33.434Z,39136.00
2018-08-30T12:22:33.425Z,45056.00
2018-08-30T12:23:33.414Z,47136.00
2018-08-30T12:24:33.455Z,56544.00
2018-08-30T12:25:33.390Z,67552.00
2018-08-30T12:26:33.384Z,68608.00
2018-08-30T12:27:33.378Z,74560.00
2018-08-30T12:28:33.526Z,82016.00
2018-08-30T12:29:33.383Z,82720.00
2018-08-30T12:30:33.479Z,89120.00
2018-08-30T12:31:33.426Z,88544.00
2018-08-30T12:32:33.338Z,83776.00
2018-08-30T12:33:33.352Z,68544.00
2018-08-30T12:34:33.397Z,70848.00
2018-08-30T12:35:33.406Z,75424.00
2018-08-30T12:36:34.114Z,61440.00
2018-08-30T12:37:33.304Z,31872.00
2018-08-30T12:38:33.281Z,29728.00
2018-08-30T12:39:33.300Z,46400.00
2018-08-30T12:40:33.255Z,38528.00
2018-08-30T12:41:33.283Z,36288.00
2018-08-30T12:42:33.567Z,35776.00
2018-08-30T12:43:33.365Z,31840.00
2018-08-30T12:44:33.314Z,30272.00
2018-08-30T12:45:33.217Z,29056.00
2018-08-30T12:46:33.255Z,29184.00
2018-08-30T12:47:33.267Z,27968.00
2018-08-30T12:48:33.204Z,54944.00
2018-08-30T12:49:33.147Z,81824.00
2018-08-30T12:50:33.308Z,71648.00
2018-08-30T12:51:33.312Z,61184.00
2018-08-30T12:52:33.305Z,64736.00
2018-08-30T12:53:33.313Z,71008.00
2018-08-30T12:54:33.245Z,66624.00
2018-08-30T12:55:33.231Z,82560.00
2018-08-30T12:56:33.074Z,99328.00
2018-08-30T12:57:33.175Z,98848.00
2018-08-30T12:58:33.256Z,90496.00
2018-08-30T12:59:33.249Z,79424.00
2018-08-30T13:00:34.134Z,37952.00
2018-08-30T13:01:33.223Z,39008.00
2018-08-30T13:02:33.352Z,92704.00
2018-08-30T13:10:31.611Z,82528.00
2018-08-30T13:11:31.826Z,40288.00
2018-08-30T13:12:31.371Z,72640.00
2018-08-30T13:13:31.366Z,88384.00
2018-08-30T13:14:31.451Z,90528.00
2018-08-30T13:15:31.533Z,25472.00
2018-08-30T13:16:31.487Z,45376.00
2018-08-30T13:17:31.118Z,37120.00
2018-08-30T13:18:31.407Z,84416.00
2018-08-30T13:19:31.569Z,28992.00
2018-08-30T13:20:31.315Z,29728.00
2018-08-30T13:21:31.264Z,80256.00
2018-08-30T13:22:31.406Z,81024.00
2018-08-30T13:23:31.148Z,66304.00
2018-08-30T13:24:31.236Z,77568.00
2018-08-30T13:25:33.535Z,30176.00
2018-08-30T13:26:31.219Z,26496.00
2018-08-30T13:27:31.390Z,24096.00
2018-08-30T13:28:31.205Z,20896.00
2018-08-30T13:29:31.219Z,23264.00
2018-08-30T13:30:31.371Z,20480.00
2018-08-30T13:31:31.251Z,70528.00
2018-08-30T13:32:43.501Z,78272.00
2018-08-30T13:33:31.310Z,78176.00
2018-08-30T13:34:31.467Z,33344.00
2018-08-30T13:35:31.199Z,31200.00
2018-08-30T13:36:31.192Z,26080.00
2018-08-30T13:37:31.505Z,25184.00
2018-08-30T13:38:32.162Z,78656.00
2018-08-30T13:39:31.628Z,77184.00
2018-08-30T13:40:33.373Z,31104.00
2018-08-30T13:41:31.328Z,78144.00
2018-08-30T13:42:31.474Z,76960.00
2018-08-30T13:43:31.227Z,77152.00
2018-08-30T13:44:31.291Z,28512.00
2018-08-30T13:45:31.391Z,24544.00
2018-08-30T13:46:31.058Z,22528.00
2018-08-30T13:47:31.289Z,20352.00
2018-08-30T13:48:31.633Z,18080.00
2018-08-30T13:49:30.978Z,16052.00
2018-08-30T13:50:31.058Z,14796.00
2018-08-30T13:51:31.109Z,13856.00
2018-08-30T13:52:31.278Z,13624.00
2018-08-30T13:53:31.078Z,14348.00
2018-08-30T13:54:31.092Z,14612.00
2018-08-30T13:55:31.150Z,14112.00
2018-08-30T13:56:31.204Z,13792.00
2018-08-30T13:57:31.293Z,13192.00
2018-08-30T15:02:12.454Z,8604.00
2018-08-30T15:03:10.058Z,7988.00
2018-08-30T15:04:09.929Z,8480.00
2018-08-30T15:05:09.996Z,9640.00
2018-08-30T15:06:09.930Z,9740.00
2018-08-30T15:07:09.932Z,9572.00
2018-08-30T15:08:11.088Z,9892.00
2018-08-30T15:09:13.889Z,10668.00
2018-08-30T15:11:20.993Z,11628.00
2018-08-30T15:12:20.847Z,11972.00
2018-08-30T15:13:20.757Z,12288.00
2018-08-30T15:14:20.688Z,12604.00
2018-08-30T15:15:20.589Z,12672.00
2018-08-30T15:16:21.679Z,12528.00
2018-08-30T15:17:20.601Z,12512.00
2018-08-30T15:18:20.536Z,12596.00
2018-08-30T15:19:20.579Z,12560.00
2018-08-30T15:20:20.861Z,13024.00
2018-08-30T15:21:20.534Z,13888.00
2018-08-30T15:22:21.405Z,14508.00
2018-08-30T15:23:20.717Z,14364.00
2018-08-30T15:24:20.551Z,14188.00
2018-08-30T15:25:20.466Z,13676.00
2018-08-30T15:26:20.462Z,13676.00
2018-08-30T15:27:20.696Z,14004.00
2018-08-30T15:28:20.439Z,13952.00
2018-08-30T15:29:20.680Z,13404.00
2018-08-30T15:30:20.397Z,12428.00
2018-08-30T15:31:20.408Z,11760.00
2018-08-30T15:32:20.569Z,10748.00
2018-08-30T15:33:20.393Z,10260.00
2018-08-30T15:34:20.657Z,10076.00
2018-08-30T15:35:20.372Z,9900.00
2018-08-30T15:36:20.497Z,10720.00
2018-08-30T15:37:20.327Z,11092.00
2018-08-30T15:38:20.323Z,12900.00
2018-08-30T15:39:20.305Z,13460.00
2018-08-30T15:40:20.834Z,13396.00
2018-08-30T15:41:20.391Z,13116.00
2018-08-30T15:42:20.383Z,13948.00
2018-08-30T15:43:20.276Z,14636.00
2018-08-30T15:44:20.253Z,14976.00
2018-08-30T15:45:20.519Z,15832.00
2018-08-30T15:46:20.468Z,15944.00
2018-08-30T15:47:20.414Z,14652.00
2018-08-30T15:48:20.454Z,13244.00
2018-08-30T15:49:20.470Z,12308.00
2018-08-30T15:50:20.221Z,11668.00
2018-08-30T15:51:20.203Z,11084.00
2018-08-30T15:52:20.936Z,10564.00
2018-08-30T15:53:20.929Z,10628.00
2018-08-30T15:54:20.206Z,10820.00
2018-08-30T15:55:20.871Z,10492.00
2018-08-30T15:56:20.205Z,9744.00
2018-08-30T15:57:21.265Z,9424.00
2018-08-30T15:58:20.897Z,8992.00
2018-08-30T15:59:20.151Z,8172.00
2018-08-30T16:00:30.294Z,7532.00
2018-08-30T16:05:45.641Z,7596.00
2018-08-30T16:06:46.741Z,7684.00
2018-08-30T16:07:45.660Z,7552.00
2018-08-30T16:08:45.438Z,7428.00
2018-08-30T16:09:45.452Z,7188.00
2018-08-30T16:10:45.491Z,6932.00
2018-08-30T16:11:45.416Z,6684.00
2018-08-30T16:12:45.401Z,6472.00
2018-08-30T16:13:45.382Z,6276.00
2018-08-30T16:14:45.445Z,6108.00
2018-08-30T16:15:45.386Z,6000.00
2018-08-30T16:16:45.354Z,5944.00
2018-08-30T16:17:45.355Z,5912.00
2018-08-30T16:18:45.454Z,5828.00
2018-08-30T16:19:45.320Z,5676.00
2018-08-30T16:20:45.406Z,5476.00
2018-08-30T16:21:45.340Z,5292.00
2018-08-30T16:22:45.296Z,5024.00
2018-08-30T16:23:45.309Z,4644.00
2018-08-30T16:24:45.432Z,4132.00
2018-08-30T16:25:45.288Z,3500.00
2018-08-30T16:26:45.235Z,2852.00
2018-08-30T16:27:45.284Z,2256.00
2018-08-30T16:28:45.234Z,1828.00
2018-08-30T16:29:45.261Z,1504.00
2018-08-30T16:30:45.254Z,1384.00
2018-08-30T16:31:45.220Z,1344.00
2018-08-30T16:32:45.228Z,1364.00
2018-08-30T16:33:45.928Z,1408.00
2018-08-30T16:50:23.511Z,3192.00
2018-08-30T16:51:31.519Z,3440.00
2018-08-30T16:52:23.750Z,3716.00
2018-08-30T16:53:23.779Z,4076.00
2018-08-30T16:54:23.407Z,4456.00
2018-08-30T16:55:23.517Z,4792.00
2018-08-30T16:56:23.593Z,5080.00
2018-08-30T16:57:23.247Z,5336.00
2018-08-30T16:58:23.381Z,5504.00
2018-08-30T16:59:26.296Z,5600.00
2018-08-30T17:00:23.394Z,5648.00
2018-08-30T17:01:23.207Z,5608.00
2018-08-30T17:02:23.598Z,5544.00
2018-08-30T17:03:23.379Z,5420.00
2018-08-30T17:04:23.174Z,5312.00
2018-08-30T17:05:23.156Z,5440.00
2018-08-30T17:06:23.223Z,5496.00
2018-08-30T17:07:23.234Z,5432.00
2018-08-30T17:08:23.632Z,5284.00
2018-08-30T17:09:23.175Z,5152.00
2018-08-30T17:10:23.166Z,4936.00
2018-08-30T17:11:23.242Z,4732.00
2018-08-30T17:12:23.155Z,4536.00
2018-08-30T17:13:23.190Z,4308.00
2018-08-30T17:14:23.048Z,4172.00
2018-08-30T17:15:23.114Z,4032.00
2018-08-30T17:16:23.038Z,3836.00
2018-08-30T17:17:25.888Z,3680.00
2018-08-30T17:25:23.696Z,3320.00
2018-08-30T17:26:27.925Z,3252.00
2018-08-30T17:27:17.519Z,3124.00
2018-08-30T17:28:17.388Z,3028.00
2018-08-30T17:29:17.486Z,2972.00
2018-08-30T17:30:17.324Z,2892.00
2018-08-30T17:31:17.524Z,2808.00
2018-08-30T17:32:17.324Z,2756.00
2018-08-30T17:33:17.280Z,2688.00
2018-08-30T17:34:17.312Z,2588.00
2018-08-30T17:35:17.288Z,2480.00
2018-08-30T17:36:17.452Z,2396.00
2018-08-30T17:37:17.400Z,2308.00
2018-08-30T17:38:17.344Z,2212.00
2018-08-30T17:39:17.307Z,2136.00
2018-08-30T17:40:17.294Z,2040.00
2018-08-30T17:41:17.200Z,1940.00
2018-08-30T17:42:17.220Z,1824.00
2018-08-30T17:43:17.221Z,1756.00
2018-08-30T17:44:17.162Z,1712.00
2018-08-30T17:45:17.233Z,1668.00
2018-08-30T17:46:17.176Z,1616.00
2018-08-30T17:47:17.161Z,1524.00
2018-08-30T17:48:17.214Z,1412.00
2018-08-30T17:49:17.114Z,1288.00
2018-08-30T17:50:17.249Z,1184.00
2018-08-30T17:51:17.130Z,1112.00
2018-08-30T17:52:17.076Z,1056.00
2018-08-30T17:53:17.077Z,1020.00
2018-08-30T17:54:17.136Z,988.00
2018-08-30T17:55:17.045Z,940.00
2018-08-30T17:56:17.036Z,892.00
2018-08-30T17:57:17.022Z,856.00
2018-08-30T17:58:16.996Z,828.00
2018-08-30T17:59:16.994Z,796.00
2018-08-30T18:00:17.120Z,764.00
2018-08-30T18:01:17.145Z,728.00
2018-08-30T18:02:17.805Z,692.00
2018-08-30T18:03:16.990Z,668.00
2018-08-30T18:04:16.993Z,636.00
2018-08-30T18:05:17.069Z,608.00
2018-08-30T18:06:16.944Z,584.00
2018-08-30T18:09:35.494Z,516.00
2018-08-30T18:10:35.167Z,480.00
2018-08-30T18:11:35.235Z,444.00
2018-08-30T18:12:35.310Z,412.00
2018-08-30T18:15:16.817Z,324.00
2018-08-30T18:16:17.697Z,292.00
2018-08-30T18:17:18.064Z,256.00
2018-08-30T18:19:47.129Z,180.00
2018-08-30T18:20:45.708Z,156.00
2018-08-30T18:21:45.884Z,140.00
2018-08-30T18:22:45.521Z,124.00
2018-08-30T18:23:46.200Z,112.00
2018-08-30T18:24:45.428Z,100.00
2018-08-30T18:25:45.554Z,88.00
2018-08-30T18:26:45.376Z,76.00
2018-08-30T18:27:45.344Z,68.00
2018-08-30T18:28:45.357Z,60.00
2018-08-30T18:29:45.305Z,52.00
2018-08-30T18:30:45.324Z,48.00
2018-08-30T18:31:45.288Z,48.00
2018-08-30T18:32:45.290Z,44.00
2018-08-30T18:33:45.289Z,40.00
2018-08-30T18:34:45.315Z,36.00
2018-08-30T18:35:45.257Z,28.00
2018-08-30T18:36:45.227Z,28.00
2018-08-30T18:37:45.285Z,20.00
2018-08-30T18:38:45.238Z,20.00
2018-08-30T18:39:45.317Z,16.00
2018-08-30T18:40:45.212Z,16.00
2018-08-30T18:41:45.353Z,12.00
2018-08-30T18:42:45.237Z,12.00
2018-08-30T18:43:45.259Z,8.00
2018-08-30T18:44:45.360Z,8.00
2018-08-30T18:45:45.437Z,8.00
2018-08-30T18:46:45.171Z,4.00
2018-08-30T18:47:45.115Z,4.00
2018-08-30T19:12:00.404Z,0.00
2018-08-30T19:15:19.888Z,0.00
2018-08-30T19:24:51.432Z,0.00
2018-08-30T19:25:51.304Z,0.00
2018-08-30T19:30:52.308Z,0.00
2018-08-30T19:31:52.142Z,0.00
2018-08-30T19:32:52.066Z,0.00
2018-08-30T19:33:52.369Z,0.00
2018-08-30T19:34:51.978Z,0.00
2018-08-30T19:35:51.882Z,0.00
2018-08-30T19:36:51.916Z,0.00
2018-08-30T19:37:51.865Z,0.00
2018-08-30T19:38:51.943Z,0.00
2018-08-30T19:41:18.492Z,0.00
2018-08-30T19:42:18.635Z,0.00
2018-08-30T19:43:18.255Z,0.00
2018-08-30T19:44:18.216Z,0.00
2018-08-30T19:45:18.212Z,0.00
2018-08-30T19:46:18.223Z,0.00
2018-08-30T19:47:18.179Z,0.00
2018-08-30T19:48:18.179Z,0.00
2018-08-30T19:49:18.155Z,0.00
2018-08-30T19:50:18.150Z,0.00
2018-08-30T19:51:18.152Z,0.00
2018-08-30T19:52:18.198Z,0.00
2018-08-30T19:53:18.138Z,0.00
2018-08-30T19:54:18.176Z,0.00
2018-08-30T19:55:18.091Z,0.00
2018-08-30T19:56:18.085Z,0.00
2018-08-30T19:57:18.145Z,0.00
2018-08-30T19:58:18.134Z,0.00
2018-08-30T19:59:18.057Z,0.00
2018-08-30T20:00:18.221Z,0.00
2018-08-30T20:01:18.046Z,0.00
2018-08-30T20:02:18.105Z,0.00
2018-08-30T20:03:18.033Z,0.00
2018-08-30T20:04:18.039Z,0.00
2018-08-30T20:05:18.052Z,0.00
2018-08-30T20:06:17.974Z,0.00
2018-08-30T20:07:17.966Z,0.00
2018-08-30T20:08:18.012Z,0.00
2018-08-30T20:09:18.014Z,0.00
2018-08-30T20:10:17.955Z,0.00
2018-08-30T20:11:17.923Z,0.00
2018-08-30T20:12:17.916Z,0.00
2018-08-30T20:13:17.897Z,0.00
2018-08-30T20:14:17.939Z,0.00
2018-08-30T20:15:17.890Z,0.00
2018-08-30T20:16:17.863Z,0.00
2018-08-30T20:17:17.858Z,0.00
2018-08-30T20:18:17.840Z,0.00
2018-08-30T20:19:17.847Z,0.00